CPA784 WADD-VHHH
Flight info
| Callsign | CPA784 |
|---|---|
| Flight time | N/A |
| Altitude | 36000 |
| Route | DOBMA M522 ELANG/N0490F370 R223 BRU/N0487F380 L649 DAKIX/N0489F370 L649 LAXOR/N0486F380 M772 ASOBA/N0483F390 M772 DULOP Q1 CARSO/N0484F380 V551 BETTY |
| Aircraft | B77W/H-SDE1E2E3FGHIJ2J3J4J5M1RWXY/LB1D1 |
Departure
| Time | 2026-04-30 07:36 |
|---|---|
| Airport | Denpasar I Gusti Ngurah Rai International Airport (WADD) |
Arrival
| Time | N/A |
|---|---|
| Airport | Hong Kong International Airport (VHHH) |
| Time | Latitude | Longitude | Altitude | Speed | Heading |
|---|---|---|---|---|---|
| 2026-04-30 07:10 | -8.74544 | 115.16931 | 25 ft | 0 kts | 358° |
| 2026-04-30 07:12 | -8.74543 | 115.16931 | 25 ft | 0 kts | 358° |
| 2026-04-30 07:30 | -8.74672 | 115.16918 | 27 ft | 0 kts | 269° |
| 2026-04-30 07:31 | -8.74672 | 115.16917 | 27 ft | 2 kts | 269° |
| 2026-04-30 07:32 | -8.74674 | 115.16778 | 25 ft | 31 kts | 268° |
| 2026-04-30 07:32 | -8.74681 | 115.16557 | 25 ft | 31 kts | 268° |
| 2026-04-30 07:32 | -8.74689 | 115.16343 | 26 ft | 30 kts | 266° |
| 2026-04-30 07:32 | -8.74702 | 115.16133 | 27 ft | 30 kts | 267° |
| 2026-04-30 07:33 | -8.74710 | 115.15922 | 27 ft | 30 kts | 268° |
| 2026-04-30 07:33 | -8.74719 | 115.15713 | 23 ft | 28 kts | 268° |
| 2026-04-30 07:33 | -8.74725 | 115.15560 | 24 ft | 17 kts | 267° |
| 2026-04-30 07:33 | -8.74731 | 115.15455 | 24 ft | 10 kts | 263° |
| 2026-04-30 07:34 | -8.74771 | 115.15401 | 25 ft | 10 kts | 203° |
| 2026-04-30 07:34 | -8.74842 | 115.15394 | 26 ft | 10 kts | 177° |
| 2026-04-30 07:34 | -8.74890 | 115.15436 | 24 ft | 10 kts | 104° |
| 2026-04-30 07:34 | -8.74892 | 115.15481 | 26 ft | 0 kts | 91° |
| 2026-04-30 07:35 | -8.74889 | 115.15571 | 26 ft | 39 kts | 87° |
| 2026-04-30 07:35 | -8.74867 | 115.16115 | 24 ft | 115 kts | 87° |
| 2026-04-30 07:35 | -8.74827 | 115.17136 | 29 ft | 172 kts | 87° |
| 2026-04-30 07:36 | -8.74784 | 115.18411 | 496 ft | 184 kts | 90° |
| 2026-04-30 07:36 | -8.74735 | 115.19705 | 1248 ft | 187 kts | 90° |
| 2026-04-30 07:36 | -8.74674 | 115.21035 | 1996 ft | 190 kts | 88° |
| 2026-04-30 07:36 | -8.74599 | 115.22374 | 2637 ft | 195 kts | 88° |
| 2026-04-30 07:37 | -8.74539 | 115.23845 | 2838 ft | 224 kts | 88° |
| 2026-04-30 07:37 | -8.74480 | 115.25503 | 3150 ft | 250 kts | 87° |
| 2026-04-30 07:37 | -8.74405 | 115.27316 | 3742 ft | 261 kts | 87° |
| 2026-04-30 07:37 | -8.74333 | 115.29160 | 4609 ft | 264 kts | 87° |
| 2026-04-30 07:38 | -8.74258 | 115.31015 | 5540 ft | 263 kts | 87° |
| 2026-04-30 07:38 | -8.74170 | 115.32851 | 6469 ft | 262 kts | 86° |
| 2026-04-30 07:38 | -8.74092 | 115.34716 | 7114 ft | 270 kts | 87° |
| 2026-04-30 07:38 | -8.74020 | 115.36608 | 7820 ft | 275 kts | 88° |
| 2026-04-30 07:39 | -8.73945 | 115.38556 | 8513 ft | 279 kts | 88° |
| 2026-04-30 07:39 | -8.73867 | 115.40540 | 9005 ft | 282 kts | 88° |
| 2026-04-30 07:39 | -8.73787 | 115.42539 | 9027 ft | 286 kts | 88° |
| 2026-04-30 07:39 | -8.73704 | 115.44548 | 9037 ft | 285 kts | 88° |
| 2026-04-30 07:40 | -8.73621 | 115.46547 | 9035 ft | 285 kts | 88° |
| 2026-04-30 07:40 | -8.73539 | 115.48542 | 9036 ft | 284 kts | 88° |
| 2026-04-30 07:40 | -8.73286 | 115.50498 | 9022 ft | 278 kts | 70° |
| 2026-04-30 07:40 | -8.72294 | 115.52192 | 9039 ft | 284 kts | 48° |
| 2026-04-30 07:41 | -8.70884 | 115.53618 | 9048 ft | 289 kts | 45° |
| 2026-04-30 07:41 | -8.69456 | 115.55026 | 9501 ft | 292 kts | 45° |
| 2026-04-30 07:41 | -8.68002 | 115.56465 | 10281 ft | 294 kts | 46° |
| 2026-04-30 07:41 | -8.66506 | 115.57952 | 10715 ft | 313 kts | 46° |
| 2026-04-30 07:42 | -8.64884 | 115.59571 | 10908 ft | 340 kts | 46° |
| 2026-04-30 07:42 | -8.63139 | 115.61317 | 11108 ft | 366 kts | 46° |
| 2026-04-30 07:42 | -8.61294 | 115.63163 | 11672 ft | 378 kts | 46° |
| 2026-04-30 07:42 | -8.59407 | 115.65053 | 12430 ft | 385 kts | 46° |
| 2026-04-30 07:43 | -8.57498 | 115.66958 | 13255 ft | 386 kts | 44° |
| 2026-04-30 07:43 | -8.55369 | 115.68487 | 13704 ft | 391 kts | 25° |
| 2026-04-30 07:43 | -8.50260 | 115.69094 | 14489 ft | 409 kts | 354° |
| 2026-04-30 07:44 | -8.47436 | 115.68708 | 15303 ft | 411 kts | 354° |
| 2026-04-30 07:44 | -8.44593 | 115.68329 | 16055 ft | 414 kts | 354° |
| 2026-04-30 07:44 | -8.41704 | 115.68031 | 16766 ft | 419 kts | 357° |
| 2026-04-30 07:44 | -8.38780 | 115.67849 | 17461 ft | 423 kts | 359° |
| 2026-04-30 07:45 | -8.35828 | 115.67703 | 18155 ft | 427 kts | 359° |
| 2026-04-30 07:45 | -8.34717 | 115.67650 | 18379 ft | 429 kts | 359° |
| 2026-04-30 07:45 | -8.33313 | 115.67581 | 18657 ft | 431 kts | 359° |
| 2026-04-30 07:45 | -8.30301 | 115.67426 | 19257 ft | 435 kts | 358° |
| 2026-04-30 07:46 | -8.27272 | 115.67258 | 19866 ft | 438 kts | 358° |
| 2026-04-30 07:46 | -8.21766 | 115.66932 | 20925 ft | 444 kts | 358° |
| 2026-04-30 07:46 | -8.18671 | 115.66745 | 21499 ft | 448 kts | 358° |
| 2026-04-30 07:47 | -8.15548 | 115.66555 | 22061 ft | 452 kts | 358° |
| 2026-04-30 07:47 | -8.12387 | 115.66363 | 22610 ft | 455 kts | 358° |
| 2026-04-30 07:47 | -8.09211 | 115.66170 | 23147 ft | 459 kts | 358° |
| 2026-04-30 07:47 | -8.06009 | 115.65977 | 23625 ft | 463 kts | 358° |
| 2026-04-30 07:48 | -8.02777 | 115.65781 | 24054 ft | 466 kts | 358° |
| 2026-04-30 07:48 | -7.99532 | 115.65585 | 24484 ft | 470 kts | 358° |
| 2026-04-30 07:48 | -7.96250 | 115.65387 | 24904 ft | 473 kts | 358° |
| 2026-04-30 07:48 | -7.92945 | 115.65188 | 25313 ft | 477 kts | 358° |
| 2026-04-30 07:49 | -7.89625 | 115.64989 | 25698 ft | 480 kts | 358° |
| 2026-04-30 07:49 | -7.86270 | 115.64786 | 26089 ft | 484 kts | 358° |
| 2026-04-30 07:49 | -7.82941 | 115.64586 | 26533 ft | 486 kts | 358° |
| 2026-04-30 07:49 | -7.79558 | 115.64382 | 26931 ft | 488 kts | 358° |
| 2026-04-30 07:50 | -7.76146 | 115.64176 | 27310 ft | 491 kts | 358° |
| 2026-04-30 07:50 | -7.72724 | 115.63970 | 27667 ft | 495 kts | 358° |
| 2026-04-30 07:50 | -7.69277 | 115.63762 | 28022 ft | 497 kts | 358° |
| 2026-04-30 07:50 | -7.65814 | 115.63553 | 28364 ft | 500 kts | 358° |
| 2026-04-30 07:51 | -7.62334 | 115.63344 | 28676 ft | 503 kts | 358° |
| 2026-04-30 07:51 | -7.58879 | 115.63109 | 28967 ft | 503 kts | 354° |
| 2026-04-30 07:51 | -7.55448 | 115.62273 | 29083 ft | 511 kts | 339° |
| 2026-04-30 07:51 | -7.52383 | 115.60455 | 29314 ft | 512 kts | 322° |
| 2026-04-30 07:52 | -7.49602 | 115.58209 | 29619 ft | 513 kts | 322° |
| 2026-04-30 07:52 | -7.46782 | 115.55996 | 29932 ft | 514 kts | 323° |
| 2026-04-30 07:52 | -7.43931 | 115.53820 | 30259 ft | 513 kts | 323° |
| 2026-04-30 07:52 | -7.41071 | 115.51673 | 30678 ft | 511 kts | 324° |
| 2026-04-30 07:53 | -7.38206 | 115.49540 | 31068 ft | 509 kts | 324° |
| 2026-04-30 07:53 | -7.35359 | 115.47426 | 31416 ft | 509 kts | 324° |
| 2026-04-30 07:53 | -7.32509 | 115.45309 | 31744 ft | 509 kts | 324° |
| 2026-04-30 07:53 | -7.29695 | 115.43215 | 32111 ft | 508 kts | 324° |
| 2026-04-30 07:54 | -7.26855 | 115.41099 | 32525 ft | 506 kts | 324° |
| 2026-04-30 07:54 | -7.24023 | 115.38988 | 32910 ft | 505 kts | 324° |
| 2026-04-30 07:54 | -7.21202 | 115.36884 | 33232 ft | 505 kts | 324° |
| 2026-04-30 07:54 | -7.18372 | 115.34773 | 33527 ft | 506 kts | 323° |
| 2026-04-30 07:55 | -7.15540 | 115.32662 | 33834 ft | 507 kts | 323° |
| 2026-04-30 07:55 | -7.12705 | 115.30548 | 34166 ft | 506 kts | 324° |
| 2026-04-30 07:55 | -7.09881 | 115.28443 | 34548 ft | 503 kts | 324° |
| 2026-04-30 07:55 | -7.07067 | 115.26347 | 34920 ft | 501 kts | 324° |
| 2026-04-30 07:56 | -7.04275 | 115.24266 | 35248 ft | 500 kts | 324° |
| 2026-04-30 07:56 | -7.01480 | 115.22184 | 35572 ft | 499 kts | 324° |
| 2026-04-30 07:56 | -6.98685 | 115.20103 | 35790 ft | 501 kts | 324° |
| 2026-04-30 07:57 | -6.93096 | 115.15940 | 35892 ft | 501 kts | 323° |
| 2026-04-30 07:57 | -6.87520 | 115.11788 | 35866 ft | 496 kts | 324° |
| 2026-04-30 07:58 | -6.79650 | 115.07827 | 35870 ft | 487 kts | 355° |
| 2026-04-30 07:58 | -6.66046 | 115.07266 | 35905 ft | 495 kts | 358° |
| 2026-04-30 07:59 | -6.52140 | 115.06479 | 35908 ft | 502 kts | 357° |
| 2026-04-30 07:59 | -6.38316 | 115.05691 | 35841 ft | 492 kts | 357° |
| 2026-04-30 08:00 | -6.18052 | 115.04548 | 35863 ft | 488 kts | 357° |
| 2026-04-30 08:00 | -6.04373 | 115.03777 | 35891 ft | 497 kts | 357° |
| 2026-04-30 08:01 | -5.90464 | 115.02981 | 35840 ft | 499 kts | 357° |
| 2026-04-30 08:01 | -5.76804 | 115.02213 | 35836 ft | 484 kts | 357° |
| 2026-04-30 08:02 | -5.59462 | 115.01238 | 35951 ft | 485 kts | 357° |
| 2026-04-30 08:02 | -5.45664 | 115.00462 | 35934 ft | 496 kts | 357° |
| 2026-04-30 08:03 | -4.91341 | 114.97407 | 35879 ft | 486 kts | 357° |
| 2026-04-30 08:03 | -4.77733 | 114.96643 | 36052 ft | 492 kts | 357° |
| 2026-04-30 08:04 | -4.63881 | 114.95866 | 35870 ft | 505 kts | 357° |
| 2026-04-30 08:04 | -4.36217 | 114.94316 | 35768 ft | 487 kts | 357° |
| 2026-04-30 08:05 | -4.11303 | 114.93468 | 35957 ft | 484 kts | 359° |
| 2026-04-30 08:05 | -4.04503 | 114.93256 | 35867 ft | 490 kts | 359° |
| 2026-04-30 08:06 | -3.97686 | 114.93039 | 35839 ft | 489 kts | 359° |
| 2026-04-30 08:06 | -3.90896 | 114.92822 | 35839 ft | 488 kts | 359° |
| 2026-04-30 08:07 | -3.84146 | 114.92608 | 35827 ft | 487 kts | 359° |
| 2026-04-30 08:07 | -3.77377 | 114.92394 | 35827 ft | 486 kts | 359° |
| 2026-04-30 08:08 | -3.70621 | 114.92179 | 35814 ft | 486 kts | 359° |
| 2026-04-30 08:08 | -3.63586 | 114.91956 | 35815 ft | 485 kts | 359° |
| 2026-04-30 08:09 | -3.36558 | 114.91100 | 35814 ft | 486 kts | 359° |
| 2026-04-30 08:09 | -3.09540 | 114.90245 | 35805 ft | 486 kts | 359° |
| 2026-04-30 08:10 | -2.82415 | 114.89387 | 35807 ft | 487 kts | 359° |